Time;durP1;ratioP1;P1;durP2;ratioP2;P2;SDS_P1;SDS_P2;PMS_P1;PMS_P2;Temp;Humidity;BMP_temperature;BMP_pressure;BME280_temperature;BME280_humidity;BME280_pressure;Samples;Min_cycle;Max_cycle;Signal;HPM_P1;HPM_P2
2022/03/20 00:02:22;;;;;;;10.73;6.20;;;5.70;99.90;;;;;;6295888;22;20206;-82
2022/03/20 00:04:49;;;;;;;10.38;5.53;;;5.60;99.90;;;;;;6296749;22;20178;-84
2022/03/20 00:07:16;;;;;;;7.00;5.20;;;5.70;99.90;;;;;;6295514;22;20186;-83
2022/03/20 00:09:44;;;;;;;8.20;5.88;;;5.60;99.90;;;;;;6295684;22;20174;-83
2022/03/20 00:12:12;;;;;;;12.20;6.28;;;5.60;99.90;;;;;;6296253;22;20198;-84
2022/03/20 00:14:39;;;;;;;13.88;6.53;;;5.60;99.90;;;;;;6296677;22;20206;-84
2022/03/20 00:17:07;;;;;;;10.25;5.75;;;5.60;99.90;;;;;;6293938;22;20162;-84
2022/03/20 00:19:35;;;;;;;14.30;7.25;;;5.50;99.90;;;;;;6289989;22;20175;-84
2022/03/20 00:22:02;;;;;;;15.40;6.80;;;5.50;99.90;;;;;;6292827;22;20259;-84
2022/03/20 00:24:29;;;;;;;8.77;7.65;;;5.50;99.90;;;;;;6291089;22;20178;-84
2022/03/20 00:26:57;;;;;;;10.18;7.45;;;5.50;99.90;;;;;;6291122;22;20179;-84
2022/03/20 00:29:27;;;;;;;10.27;8.30;;;5.50;99.90;;;;;;6289115;22;20262;-84
2022/03/20 00:31:54;;;;;;;12.93;7.82;;;5.40;99.90;;;;;;6289475;22;20194;-83
2022/03/20 00:34:21;;;;;;;16.17;8.32;;;5.50;99.90;;;;;;6286951;22;20174;-83
2022/03/20 00:36:52;;;;;;;10.40;7.45;;;5.40;99.90;;;;;;6290030;22;20175;-83
2022/03/20 00:39:19;;;;;;;17.35;10.02;;;5.40;99.90;;;;;;6287282;22;20186;-84
2022/03/20 00:41:46;;;;;;;14.18;9.70;;;5.40;99.90;;;;;;6287499;22;20245;-83
2022/03/20 00:44:13;;;;;;;13.20;8.45;;;5.30;99.90;;;;;;6288380;22;20269;-84
2022/03/20 00:46:41;;;;;;;13.30;8.70;;;5.30;99.90;;;;;;6289114;22;20228;-83
2022/03/20 00:49:08;;;;;;;15.57;11.15;;;5.30;99.90;;;;;;6288194;22;20213;-83
2022/03/20 00:51:36;;;;;;;14.07;10.48;;;5.40;99.90;;;;;;6288040;22;20226;-84
2022/03/20 00:54:03;;;;;;;15.45;8.90;;;5.30;99.90;;;;;;6287335;22;20174;-84
2022/03/20 00:56:30;;;;;;;16.05;9.80;;;5.30;99.90;;;;;;6292919;22;20236;-83
2022/03/20 00:58:57;;;;;;;14.75;9.25;;;5.30;99.90;;;;;;6293410;22;20174;-84
2022/03/20 01:01:26;;;;;;;13.45;10.27;;;5.30;99.90;;;;;;6292702;22;20198;-83
2022/03/20 01:03:55;;;;;;;13.77;11.15;;;5.20;99.90;;;;;;6291491;22;20563;-83
2022/03/20 01:06:23;;;;;;;16.85;10.18;;;5.20;99.90;;;;;;6290181;22;20225;-83
2022/03/20 01:08:52;;;;;;;13.43;11.18;;;5.20;99.90;;;;;;6288735;22;20208;-83
2022/03/20 01:11:20;;;;;;;18.08;11.63;;;5.30;99.90;;;;;;6288805;22;20189;-83
2022/03/20 01:13:47;;;;;;;17.58;11.40;;;5.10;99.90;;;;;;6289100;22;20201;-83
2022/03/20 01:16:14;;;;;;;13.10;11.52;;;5.10;99.90;;;;;;6289399;22;20208;-83
2022/03/20 01:18:40;;;;;;;14.38;10.07;;;5.20;99.90;;;;;;6289032;22;20186;-83
2022/03/20 01:21:09;;;;;;;17.52;11.88;;;5.20;99.90;;;;;;6290646;22;20178;-83
2022/03/20 01:23:38;;;;;;;14.20;9.80;;;5.00;99.90;;;;;;6290229;22;20244;-84
2022/03/20 01:26:06;;;;;;;16.08;11.05;;;5.00;99.90;;;;;;6289611;22;20197;-83
2022/03/20 01:28:32;;;;;;;15.13;11.52;;;4.90;99.90;;;;;;6289110;22;20173;-83
2022/03/20 01:30:59;;;;;;;17.27;12.02;;;4.90;99.90;;;;;;6286053;22;20185;-83
2022/03/20 01:33:26;;;;;;;15.93;10.60;;;4.90;99.90;;;;;;6287569;22;20205;-83
2022/03/20 01:35:53;;;;;;;15.50;10.90;;;5.00;99.90;;;;;;6286713;22;20213;-83
2022/03/20 01:38:22;;;;;;;15.65;10.95;;;4.90;99.90;;;;;;6288411;22;20266;-83
2022/03/20 01:40:50;;;;;;;21.20;11.40;;;4.70;99.90;;;;;;6288199;22;20181;-83
2022/03/20 01:43:18;;;;;;;19.08;11.30;;;4.70;99.90;;;;;;6292430;22;20181;-82
2022/03/20 01:45:45;;;;;;;18.80;11.95;;;4.70;99.90;;;;;;6296147;22;20225;-83
2022/03/20 01:48:12;;;;;;;14.98;11.32;;;4.70;99.90;;;;;;6296003;22;20290;-83
2022/03/20 01:50:39;;;;;;;20.27;12.40;;;4.70;99.90;;;;;;6294925;22;20173;-82
2022/03/20 01:53:07;;;;;;;18.05;13.10;;;4.60;99.90;;;;;;6296351;22;20193;-82
2022/03/20 01:55:36;;;;;;;15.88;12.07;;;4.70;99.90;;;;;;6295396;22;20174;-83
2022/03/20 01:58:03;;;;;;;17.65;11.05;;;4.60;99.90;;;;;;6295513;22;20215;-83
2022/03/20 02:00:32;;;;;;;16.63;11.45;;;4.50;99.90;;;;;;6295820;22;20198;-83
2022/03/20 02:02:59;;;;;;;19.00;12.90;;;4.50;99.90;;;;;;6292683;22;20208;-82
2022/03/20 02:05:26;;;;;;;18.92;12.68;;;4.50;99.90;;;;;;6295636;22;20178;-82
2022/03/20 02:07:55;;;;;;;21.30;12.63;;;4.40;99.90;;;;;;6295466;22;20185;-82
2022/03/20 02:10:22;;;;;;;14.73;12.35;;;4.40;99.90;;;;;;6294299;22;20174;-82
2022/03/20 02:12:50;;;;;;;21.77;13.43;;;4.40;99.90;;;;;;6289946;22;20202;-82
2022/03/20 02:15:17;;;;;;;19.63;12.55;;;4.40;99.90;;;;;;6286975;22;20601;-83
2022/03/20 02:17:45;;;;;;;19.35;13.60;;;4.30;99.90;;;;;;6285475;22;20201;-83
2022/03/20 02:20:13;;;;;;;17.83;12.95;;;4.40;99.90;;;;;;6286329;22;20190;-83
2022/03/20 02:22:43;;;;;;;18.13;13.70;;;4.20;99.90;;;;;;6286638;22;20224;-83
2022/03/20 02:25:14;;;;;;;25.70;14.55;;;4.30;99.90;;;;;;6286179;22;20170;-83
2022/03/20 02:27:44;;;;;;;23.30;15.73;;;4.20;99.90;;;;;;6286538;22;20159;-83
2022/03/20 02:30:16;;;;;;;21.55;13.00;;;4.20;99.90;;;;;;6285715;22;20612;-83
2022/03/20 02:32:44;;;;;;;21.02;13.95;;;4.20;99.90;;;;;;6285941;22;20253;-83
2022/03/20 02:35:14;;;;;;;23.20;13.80;;;4.20;99.90;;;;;;6288078;22;20238;-82
2022/03/20 02:37:48;;;;;;;17.60;13.85;;;4.20;99.90;;;;;;6293673;22;20162;-82
2022/03/20 02:40:17;;;;;;;17.85;13.60;;;4.10;99.90;;;;;;6295948;22;20178;-82
2022/03/20 02:42:50;;;;;;;20.55;14.85;;;4.10;99.90;;;;;;6296878;22;20189;-83
2022/03/20 02:45:20;;;;;;;17.27;12.63;;;4.10;99.90;;;;;;6270800;22;20161;-82
2022/03/20 02:47:49;;;;;;;21.10;13.18;;;4.10;99.90;;;;;;6297164;22;20170;-82
2022/03/20 02:50:20;;;;;;;23.90;13.85;;;4.10;99.90;;;;;;6291620;22;20165;-83
2022/03/20 02:52:51;;;;;;;22.33;14.68;;;4.10;99.90;;;;;;6289022;22;20205;-84
2022/03/20 02:55:20;;;;;;;22.38;15.57;;;4.00;99.90;;;;;;6286389;22;20592;-84
2022/03/20 02:57:48;;;;;;;19.45;15.13;;;4.00;99.90;;;;;;6287165;22;20197;-84
2022/03/20 03:00:18;;;;;;;18.75;15.50;;;4.00;99.90;;;;;;6286016;22;20185;-84
2022/03/20 03:02:46;;;;;;;25.02;17.35;;;4.00;99.90;;;;;;6286473;22;20190;-82
2022/03/20 03:05:14;;;;;;;22.50;15.05;;;3.90;99.90;;;;;;6286293;22;20189;-84
2022/03/20 03:13:14;;;;;;;21.92;15.57;;;3.90;99.90;;;;;;6296555;22;20216;-83
2022/03/20 03:15:42;;;;;;;20.92;15.43;;;3.90;99.90;;;;;;6298843;22;20180;-82
2022/03/20 03:18:09;;;;;;;21.55;15.52;;;3.90;99.90;;;;;;6297910;22;20180;-83
2022/03/20 03:20:37;;;;;;;23.25;14.40;;;3.90;99.90;;;;;;6303156;22;20167;-83
2022/03/20 03:23:05;;;;;;;24.27;17.10;;;3.90;99.90;;;;;;6303350;22;20199;-82
2022/03/20 03:25:34;;;;;;;25.40;16.52;;;3.90;99.90;;;;;;6303605;22;20154;-83
2022/03/20 03:28:36;;;;;;;21.38;15.68;;;3.80;99.90;;;;;;6304150;22;20169;-83
2022/03/20 03:31:04;;;;;;;20.80;16.08;;;3.80;99.90;;;;;;6304095;22;20161;-83
2022/03/20 03:33:32;;;;;;;24.98;17.13;;;3.80;99.90;;;;;;6304220;22;20149;-83
2022/03/20 03:35:58;;;;;;;20.83;15.60;;;3.80;99.90;;;;;;6303034;22;20172;-84
2022/03/20 03:38:27;;;;;;;20.95;16.15;;;3.80;99.90;;;;;;6302464;22;20177;-84
2022/03/20 03:40:56;;;;;;;23.80;17.27;;;3.70;99.90;;;;;;6303010;22;20169;-83
2022/03/20 03:43:23;;;;;;;27.73;16.30;;;3.80;99.90;;;;;;6303133;22;20179;-83
2022/03/20 03:45:50;;;;;;;23.33;15.45;;;3.80;99.90;;;;;;6302967;22;20253;-83
2022/03/20 03:48:17;;;;;;;21.15;17.10;;;3.70;99.90;;;;;;6302966;22;20206;-83
2022/03/20 03:50:50;;;;;;;22.85;16.13;;;3.70;99.90;;;;;;6303911;22;20162;-83
2022/03/20 03:53:17;;;;;;;24.75;17.25;;;3.70;99.90;;;;;;6303553;22;20176;-82
2022/03/20 03:55:44;;;;;;;21.83;17.45;;;3.80;99.90;;;;;;6301440;22;20197;-82
2022/03/20 03:58:13;;;;;;;26.10;18.17;;;3.60;99.90;;;;;;6301706;22;20162;-82
2022/03/20 04:00:42;;;;;;;25.50;18.55;;;3.70;99.90;;;;;;6301824;22;20201;-83
2022/03/20 04:03:23;;;;;;;23.25;16.92;;;3.60;99.90;;;;;;6304324;22;20253;-83
2022/03/20 04:05:51;;;;;;;23.65;17.15;;;3.60;99.90;;;;;;6304975;22;20145;-81
2022/03/20 04:08:18;;;;;;;29.58;17.48;;;3.70;99.90;;;;;;6305533;22;20163;-82
2022/03/20 04:10:45;;;;;;;25.58;17.63;;;3.70;99.90;;;;;;6303898;22;20176;-82
2022/03/20 04:13:13;;;;;;;25.55;17.65;;;3.60;99.90;;;;;;6305114;22;20202;-82
2022/03/20 04:15:41;;;;;;;24.45;16.85;;;3.70;99.90;;;;;;6305231;22;20170;-83
2022/03/20 04:18:08;;;;;;;23.85;17.98;;;3.60;99.90;;;;;;6305007;22;20160;-82
2022/03/20 04:20:35;;;;;;;21.13;15.40;;;3.60;99.90;;;;;;6303728;22;20178;-83
2022/03/20 04:25:48;;;;;;;23.70;17.05;;;3.50;99.90;;;;;;6305095;22;20153;-83
2022/03/20 04:28:17;;;;;;;25.67;17.70;;;3.50;99.90;;;;;;6304357;22;20232;-83
2022/03/20 04:30:44;;;;;;;25.67;18.38;;;3.50;99.90;;;;;;6300588;22;20260;-83
2022/03/20 04:33:11;;;;;;;24.85;15.88;;;3.50;99.90;;;;;;6296476;22;20233;-83
2022/03/20 04:35:38;;;;;;;24.25;18.23;;;3.50;99.90;;;;;;6289850;22;20173;-83
2022/03/20 04:38:05;;;;;;;21.50;17.08;;;3.50;99.90;;;;;;6289932;22;20232;-83
2022/03/20 04:40:38;;;;;;;26.33;18.55;;;3.50;99.90;;;;;;6289805;22;20185;-83
2022/03/20 04:43:09;;;;;;;27.63;17.77;;;3.50;99.90;;;;;;6296404;22;20190;-82
2022/03/20 04:45:52;;;;;;;28.92;17.67;;;3.50;99.90;;;;;;6297296;22;20508;-83
2022/03/20 04:59:17;;;;;;;26.25;17.45;;;3.50;99.90;;;;;;6287723;22;20177;-83
2022/03/20 05:01:46;;;;;;;27.13;17.55;;;3.50;99.90;;;;;;6287045;22;20198;-83
2022/03/20 05:04:14;;;;;;;25.83;18.50;;;3.50;99.90;;;;;;6288096;22;20178;-83
2022/03/20 05:06:43;;;;;;;22.08;17.65;;;3.40;99.90;;;;;;6292214;22;20211;-83
2022/03/20 05:14:39;;;;;;;30.73;17.65;;;3.50;99.90;;;;;;6288441;22;20597;-82
2022/03/20 05:17:08;;;;;;;26.15;18.40;;;3.40;99.90;;;;;;6290982;22;20192;-83
2022/03/20 05:19:36;;;;;;;30.70;16.40;;;3.40;99.90;;;;;;6290368;22;20182;-83
2022/03/20 05:22:03;;;;;;;25.20;18.20;;;3.40;99.90;;;;;;6290932;22;20293;-83
2022/03/20 05:24:31;;;;;;;24.65;17.98;;;3.40;99.90;;;;;;6292102;22;20197;-82
2022/03/20 05:26:58;;;;;;;26.38;18.67;;;3.30;99.90;;;;;;6301056;22;20197;-82
2022/03/20 05:29:25;;;;;;;26.20;18.85;;;3.40;99.90;;;;;;6300515;22;20182;-81
2022/03/20 05:31:53;;;;;;;26.40;19.10;;;3.40;99.90;;;;;;6301140;22;20677;-81
2022/03/20 05:34:22;;;;;;;26.50;17.80;;;3.30;99.90;;;;;;6300785;22;20166;-83
2022/03/20 05:36:51;;;;;;;29.40;17.95;;;3.40;99.90;;;;;;6294902;22;20170;-83
2022/03/20 05:39:18;;;;;;;24.00;17.50;;;3.30;99.90;;;;;;6286978;22;20179;-82
2022/03/20 05:41:47;;;;;;;25.00;18.90;;;3.20;99.90;;;;;;6284873;22;20202;-82
2022/03/20 05:44:16;;;;;;;26.58;17.10;;;3.40;99.90;;;;;;6284492;22;20181;-82
2022/03/20 05:46:43;;;;;;;25.40;17.73;;;3.40;99.90;;;;;;6284762;22;20195;-83
2022/03/20 05:49:09;;;;;;;29.25;18.75;;;3.40;99.90;;;;;;6284310;22;20182;-83
2022/03/20 05:51:38;;;;;;;28.58;17.75;;;3.40;99.90;;;;;;6283533;22;20260;-83
2022/03/20 05:54:06;;;;;;;24.55;17.35;;;3.40;99.90;;;;;;6284197;22;20554;-83
2022/03/20 05:59:13;;;;;;;22.83;16.35;;;3.40;99.90;;;;;;6248770;22;20177;-83
2022/03/20 06:01:40;;;;;;;36.55;19.48;;;3.50;99.90;;;;;;6283726;22;20190;-83
2022/03/20 06:04:08;;;;;;;28.13;20.15;;;3.50;99.90;;;;;;6285069;22;20637;-83
2022/03/20 06:06:35;;;;;;;34.63;19.55;;;3.60;99.90;;;;;;6285528;22;20277;-83
2022/03/20 06:09:04;;;;;;;25.85;18.40;;;3.60;99.90;;;;;;6286005;22;20554;-83
2022/03/20 06:11:34;;;;;;;23.90;17.60;;;3.60;99.90;;;;;;6283722;22;20646;-83
2022/03/20 06:14:01;;;;;;;25.00;18.00;;;3.60;99.90;;;;;;6283976;22;20176;-83
2022/03/20 06:16:28;;;;;;;29.17;18.48;;;3.60;99.90;;;;;;6287076;22;20174;-82
2022/03/20 06:18:55;;;;;;;23.85;16.52;;;3.70;99.90;;;;;;6287310;22;20203;-83
2022/03/20 06:21:39;;;;;;;27.15;16.88;;;3.70;99.90;;;;;;6286357;22;20201;-83
2022/03/20 06:24:08;;;;;;;23.02;17.42;;;3.80;99.90;;;;;;6284381;22;20165;-82
2022/03/20 06:26:35;;;;;;;30.48;19.65;;;3.90;99.90;;;;;;6284984;22;20677;-82
2022/03/20 06:29:05;;;;;;;28.45;18.40;;;4.00;99.90;;;;;;6285911;22;20178;-83
2022/03/20 06:31:33;;;;;;;25.33;16.48;;;4.20;99.90;;;;;;6286250;22;20209;-83
2022/03/20 06:34:00;;;;;;;26.67;17.70;;;4.30;99.90;;;;;;6284297;22;20253;-83
2022/03/20 06:36:33;;;;;;;21.70;16.70;;;4.50;99.90;;;;;;6284033;22;20229;-83
2022/03/20 06:39:00;;;;;;;21.75;16.25;;;4.80;99.90;;;;;;6286346;22;20163;-84
2022/03/20 06:41:29;;;;;;;23.55;16.65;;;5.40;99.90;;;;;;6285297;22;20250;-84
2022/03/20 06:43:57;;;;;;;28.92;18.63;;;6.10;99.90;;;;;;6284300;22;20179;-83
2022/03/20 06:46:27;;;;;;;21.33;15.77;;;6.60;99.90;;;;;;6287399;22;20183;-83
2022/03/20 06:48:55;;;;;;;24.30;15.30;;;7.10;99.40;;;;;;6284538;22;20161;-84
2022/03/20 06:51:22;;;;;;;23.23;17.75;;;7.60;97.80;;;;;;6283347;22;20232;-83
2022/03/20 06:53:49;;;;;;;25.35;19.30;;;8.00;95.90;;;;;;6284409;22;20201;-84
2022/03/20 06:56:16;;;;;;;25.65;16.48;;;8.20;94.00;;;;;;6285312;22;20185;-83
2022/03/20 06:58:45;;;;;;;25.05;16.63;;;8.60;93.60;;;;;;6284571;22;20186;-83
2022/03/20 07:01:12;;;;;;;22.88;17.00;;;8.90;92.20;;;;;;6283952;22;20178;-83
2022/03/20 07:03:39;;;;;;;22.73;16.35;;;9.10;90.90;;;;;;6285701;22;20166;-84
2022/03/20 07:06:06;;;;;;;18.90;15.75;;;9.20;90.20;;;;;;6284726;22;20257;-84
2022/03/20 07:08:33;;;;;;;18.27;16.20;;;9.40;89.70;;;;;;6285686;22;20258;-83
2022/03/20 07:11:00;;;;;;;19.13;15.65;;;9.70;88.70;;;;;;6283501;22;20190;-84
2022/03/20 07:16:15;;;;;;;20.17;15.38;;;10.00;84.10;;;;;;6291558;22;20228;-84
2022/03/20 07:18:43;;;;;;;23.85;16.75;;;9.90;84.40;;;;;;6291746;22;20165;-83
2022/03/20 07:21:11;;;;;;;24.38;18.42;;;10.30;82.50;;;;;;6288848;22;20179;-83
2022/03/20 07:23:38;;;;;;;22.48;17.02;;;10.70;80.90;;;;;;6293817;22;20177;-84
2022/03/20 07:31:36;;;;;;;28.92;19.08;;;11.80;75.80;;;;;;6285328;22;20283;-82
2022/03/20 07:34:03;;;;;;;20.98;16.95;;;12.10;74.20;;;;;;6286272;22;20195;-84
2022/03/20 07:36:31;;;;;;;18.10;15.63;;;12.30;72.40;;;;;;6287985;22;20188;-86
2022/03/20 07:38:58;;;;;;;26.63;18.70;;;12.20;72.40;;;;;;6287864;22;20496;-85
2022/03/20 07:41:31;;;;;;;17.45;15.32;;;12.50;70.70;;;;;;6286874;22;20236;-84
2022/03/20 07:43:58;;;;;;;19.40;16.30;;;12.80;69.10;;;;;;6292752;22;20174;-84
2022/03/20 07:46:25;;;;;;;20.23;16.48;;;13.20;69.50;;;;;;6296812;22;20216;-81
2022/03/20 07:48:53;;;;;;;19.20;15.35;;;14.10;66.90;;;;;;6294763;22;20194;-82
2022/03/20 07:51:21;;;;;;;21.85;17.42;;;14.20;65.50;;;;;;6292970;22;20237;-83
2022/03/20 07:53:51;;;;;;;26.02;17.60;;;14.30;63.50;;;;;;6290192;22;20229;-84
2022/03/20 07:56:21;;;;;;;21.15;16.85;;;14.20;63.30;;;;;;6288833;22;20220;-83
2022/03/20 07:58:48;;;;;;;21.15;17.05;;;14.20;63.30;;;;;;6291025;22;20215;-82
2022/03/20 08:01:15;;;;;;;25.70;18.67;;;14.40;62.50;;;;;;6287402;22;20195;-83
2022/03/20 08:03:43;;;;;;;24.65;19.35;;;14.10;61.90;;;;;;6287434;22;20449;-85
2022/03/20 08:06:11;;;;;;;25.42;17.55;;;14.50;61.20;;;;;;6286845;22;20156;-84
2022/03/20 08:08:41;;;;;;;21.52;17.02;;;15.00;61.60;;;;;;6285358;22;20192;-84
2022/03/20 08:11:09;;;;;;;20.83;16.08;;;15.80;59.80;;;;;;6286049;22;20177;-81
2022/03/20 08:13:36;;;;;;;22.30;18.53;;;15.90;58.00;;;;;;6290245;22;20178;-81
2022/03/20 08:16:04;;;;;;;20.80;17.97;;;16.10;57.10;;;;;;6290212;22;20435;-81
2022/03/20 08:18:32;;;;;;;21.75;17.40;;;16.40;56.80;;;;;;6289157;22;20427;-85
2022/03/20 08:20:59;;;;;;;25.38;20.02;;;15.80;55.90;;;;;;6298349;22;20233;-84
2022/03/20 08:23:27;;;;;;;22.30;16.80;;;15.90;56.30;;;;;;6297291;22;20173;-82
2022/03/20 08:25:57;;;;;;;21.70;17.27;;;16.20;55.40;;;;;;6295295;22;20812;-86
2022/03/20 08:28:24;;;;;;;19.92;17.75;;;16.00;55.00;;;;;;6294157;22;20776;-84
2022/03/20 08:30:52;;;;;;;21.80;18.60;;;16.20;55.20;;;;;;6289942;22;20196;-85
2022/03/20 08:33:19;;;;;;;24.47;19.63;;;16.00;55.30;;;;;;6288336;22;20425;-85
2022/03/20 08:35:46;;;;;;;24.40;19.20;;;16.40;55.10;;;;;;6286707;22;20783;-87
2022/03/20 08:38:13;;;;;;;23.90;18.27;;;17.10;54.30;;;;;;6288366;22;20405;-85
2022/03/20 08:40:41;;;;;;;21.33;18.67;;;17.40;53.00;;;;;;6285542;22;20408;-82
2022/03/20 08:43:13;;;;;;;22.77;17.23;;;17.40;52.70;;;;;;6286845;22;20421;-83
2022/03/20 08:45:44;;;;;;;22.20;18.53;;;17.10;52.40;;;;;;6290707;22;20472;-85
2022/03/20 08:48:12;;;;;;;21.23;16.97;;;17.20;52.50;;;;;;6288575;22;20455;-86
2022/03/20 08:50:40;;;;;;;21.97;19.57;;;17.20;52.50;;;;;;6287977;22;20389;-84
2022/03/20 08:53:07;;;;;;;25.73;18.37;;;17.70;52.20;;;;;;6286946;22;20432;-84
2022/03/20 08:55:34;;;;;;;27.03;20.13;;;17.90;51.40;;;;;;6288062;22;20416;-86
2022/03/20 08:58:04;;;;;;;28.93;21.50;;;17.80;50.70;;;;;;6289465;22;20406;-85
2022/03/20 09:00:33;;;;;;;25.27;19.50;;;18.20;50.60;;;;;;6293576;22;20460;-83
2022/03/20 09:03:00;;;;;;;24.10;20.00;;;17.90;50.20;;;;;;6287534;22;20425;-85
2022/03/20 09:05:27;;;;;;;25.23;20.23;;;17.90;49.80;;;;;;6288153;22;20893;-84
2022/03/20 09:07:57;;;;;;;24.20;20.27;;;17.80;50.30;;;;;;6288760;22;20395;-82
2022/03/20 09:10:25;;;;;;;25.10;19.17;;;17.80;49.30;;;;;;6286197;22;20400;-82
2022/03/20 09:12:55;;;;;;;24.23;20.37;;;17.90;49.30;;;;;;6286943;22;20485;-82
2022/03/20 09:15:24;;;;;;;22.70;19.77;;;17.60;48.70;;;;;;6287903;22;20396;-83
2022/03/20 09:20:48;;;;;;;25.20;18.57;;;16.70;49.50;;;;;;6295356;22;20431;-82
2022/03/20 09:23:15;;;;;;;24.10;19.20;;;16.40;49.40;;;;;;6297361;22;20503;-81
2022/03/20 09:25:43;;;;;;;24.83;17.30;;;16.60;49.70;;;;;;6294979;22;20409;-82
2022/03/20 09:28:12;;;;;;;21.03;17.93;;;16.70;49.20;;;;;;6292819;22;20405;-82
2022/03/20 09:30:42;;;;;;;27.17;20.00;;;16.40;48.90;;;;;;6286817;22;20420;-83
2022/03/20 09:33:11;;;;;;;24.87;19.13;;;16.50;49.20;;;;;;6286559;22;20409;-82
2022/03/20 09:35:38;;;;;;;21.70;18.67;;;16.00;49.40;;;;;;6287344;22;20409;-83
2022/03/20 09:38:08;;;;;;;22.17;18.27;;;16.30;49.90;;;;;;6288080;22;20460;-83
2022/03/20 09:40:37;;;;;;;22.38;19.15;;;16.10;49.40;;;;;;6291984;22;20408;-82
2022/03/20 09:43:04;;;;;;;23.50;18.13;;;16.10;49.10;;;;;;6292435;22;20197;-82
2022/03/20 09:45:35;;;;;;;23.27;18.47;;;16.20;49.60;;;;;;6294565;22;20188;-83
2022/03/20 09:48:05;;;;;;;22.30;17.57;;;16.00;49.30;;;;;;6292971;22;20412;-83
2022/03/20 09:50:32;;;;;;;19.10;16.80;;;16.40;49.70;;;;;;6292757;22;20392;-82
2022/03/20 09:52:59;;;;;;;24.17;19.33;;;16.70;48.90;;;;;;6293149;22;20934;-82
2022/03/20 09:55:27;;;;;;;24.00;18.23;;;16.60;48.40;;;;;;6294616;22;20460;-82
2022/03/20 09:57:56;;;;;;;24.00;18.47;;;16.40;48.90;;;;;;6293343;22;20440;-82
2022/03/20 10:00:24;;;;;;;24.23;19.10;;;16.50;48.90;;;;;;6293588;22;20491;-82
2022/03/20 10:02:51;;;;;;;21.08;18.55;;;16.10;48.40;;;;;;6293872;22;21114;-81
2022/03/20 10:05:22;;;;;;;20.52;18.00;;;15.60;48.30;;;;;;6291246;22;20185;-82
2022/03/20 10:07:49;;;;;;;24.25;19.27;;;15.20;48.90;;;;;;6295098;22;20173;-81
2022/03/20 10:10:17;;;;;;;24.73;17.80;;;15.60;49.80;;;;;;6293442;22;20173;-83
2022/03/20 10:12:46;;;;;;;27.00;18.67;;;16.10;48.80;;;;;;6293314;22;20430;-83
2022/03/20 10:15:32;;;;;;;23.60;18.13;;;16.00;49.10;;;;;;6294037;22;20228;-82
2022/03/20 10:18:21;;;;;;;21.87;17.63;;;16.20;48.20;;;;;;6293626;22;20483;-84
2022/03/20 10:20:59;;;;;;;21.20;17.40;;;16.80;48.30;;;;;;6296452;22;20400;-82
2022/03/20 10:23:32;;;;;;;27.77;22.77;;;17.30;47.00;;;;;;6290183;22;20459;-83
2022/03/20 10:25:59;;;;;;;21.40;18.60;;;17.30;46.10;;;;;;6288813;22;20469;-83
2022/03/20 10:28:35;;;;;;;23.10;18.45;;;16.90;44.70;;;;;;6289747;22;20387;-83
2022/03/20 10:31:04;;;;;;;20.90;17.05;;;16.20;44.60;;;;;;6290795;22;20184;-85
2022/03/20 10:33:31;;;;;;;22.03;16.50;;;16.00;44.20;;;;;;6288411;22;20195;-85
2022/03/20 10:36:13;;;;;;;24.83;18.48;;;15.60;44.60;;;;;;6289596;22;20790;-85
2022/03/20 10:42:02;;;;;;;23.70;16.50;;;15.00;45.50;;;;;;6292281;22;20473;-83
2022/03/20 10:44:31;;;;;;;24.80;16.02;;;14.90;46.10;;;;;;6293425;22;20170;-86
2022/03/20 10:47:00;;;;;;;21.67;14.60;;;14.60;45.70;;;;;;6294141;22;20174;-84
2022/03/20 10:49:28;;;;;;;19.73;14.60;;;13.80;45.90;;;;;;6296956;22;20186;-85
2022/03/20 10:52:08;;;;;;;17.80;14.05;;;13.70;47.00;;;;;;6294566;22;20205;-85
2022/03/20 10:54:43;;;;;;;19.33;14.32;;;13.40;46.90;;;;;;6298623;22;20460;-85
2022/03/20 10:57:11;;;;;;;17.58;13.95;;;13.40;46.80;;;;;;6296974;22;20179;-82
2022/03/20 10:59:39;;;;;;;17.40;14.23;;;13.40;47.00;;;;;;6302510;22;20204;-83
2022/03/20 11:02:20;;;;;;;19.52;14.55;;;13.30;47.30;;;;;;6303863;22;20197;-83
2022/03/20 11:04:47;;;;;;;15.57;12.48;;;13.30;47.50;;;;;;6306472;22;20158;-83
2022/03/20 11:07:17;;;;;;;18.20;13.68;;;13.40;47.30;;;;;;6306876;22;20212;-81
2022/03/20 11:09:46;;;;;;;17.40;14.27;;;13.60;47.70;;;;;;6306384;22;20142;-82
2022/03/20 11:12:18;;;;;;;16.35;14.02;;;13.80;47.70;;;;;;6306066;22;20197;-81
2022/03/20 11:14:46;;;;;;;23.08;15.30;;;13.70;47.30;;;;;;6306360;22;20169;-81
2022/03/20 11:17:17;;;;;;;20.25;13.18;;;13.80;46.80;;;;;;6306389;22;20158;-80
2022/03/20 11:19:50;;;;;;;18.60;14.93;;;13.80;47.00;;;;;;6306004;22;20178;-80
2022/03/20 11:22:21;;;;;;;18.10;12.98;;;13.90;46.90;;;;;;6306497;22;20229;-82
2022/03/20 11:24:51;;;;;;;16.40;11.60;;;13.60;47.00;;;;;;6306522;22;20162;-80
2022/03/20 11:27:24;;;;;;;17.80;12.18;;;13.60;46.90;;;;;;6306048;22;20151;-81
2022/03/20 11:29:55;;;;;;;16.80;12.85;;;13.80;47.30;;;;;;6305451;22;20162;-81
2022/03/20 11:32:23;;;;;;;15.95;12.43;;;13.90;46.50;;;;;;6304308;22;20260;-82
2022/03/20 11:34:53;;;;;;;13.52;10.25;;;13.70;46.00;;;;;;6305152;22;20178;-82
2022/03/20 11:37:21;;;;;;;14.23;11.20;;;13.80;45.90;;;;;;6303930;22;20169;-82
2022/03/20 11:40:10;;;;;;;20.77;11.70;;;13.70;45.90;;;;;;6302573;22;20201;-81
2022/03/20 11:42:38;;;;;;;15.48;12.10;;;13.70;45.20;;;;;;6289304;22;20198;-81
2022/03/20 11:45:14;;;;;;;20.33;13.30;;;13.60;44.70;;;;;;6295469;22;20177;-82
2022/03/20 11:47:42;;;;;;;21.88;13.60;;;13.60;45.10;;;;;;6293772;22;20197;-80
2022/03/20 11:50:17;;;;;;;15.95;11.80;;;13.50;45.50;;;;;;6292481;22;20174;-81
2022/03/20 11:52:55;;;;;;;16.33;11.80;;;13.50;45.80;;;;;;6290713;22;20200;-83
2022/03/20 11:55:36;;;;;;;14.07;11.90;;;13.50;45.90;;;;;;6289656;22;20250;-81
2022/03/20 11:58:10;;;;;;;14.88;12.25;;;13.50;45.30;;;;;;6288413;22;20169;-83
2022/03/20 12:00:43;;;;;;;16.85;13.60;;;13.30;45.40;;;;;;6288084;22;20191;-81
2022/03/20 12:03:53;;;;;;;15.45;11.25;;;13.40;46.00;;;;;;6290222;22;20201;-81
2022/03/20 12:06:50;;;;;;;14.55;12.02;;;13.50;45.90;;;;;;6288092;22;20209;-81
2022/03/20 12:09:52;;;;;;;16.50;13.60;;;13.60;46.10;;;;;;6268853;22;20211;-82
2022/03/20 12:12:44;;;;;;;14.05;11.63;;;13.80;46.80;;;;;;6251037;22;20194;-81
2022/03/20 12:15:19;;;;;;;25.50;13.02;;;13.80;46.50;;;;;;6288259;22;20321;-82
2022/03/20 12:18:03;;;;;;;15.65;13.85;;;13.80;45.90;;;;;;6285794;22;20578;-81
2022/03/20 12:21:00;;;;;;;15.77;11.10;;;13.70;46.70;;;;;;6287264;22;20158;-81
2022/03/20 12:23:43;;;;;;;19.15;12.32;;;13.80;47.20;;;;;;6287308;22;20488;-84
2022/03/20 12:30:02;;;;;;;14.38;11.90;;;14.00;46.40;;;;;;6290776;22;20209;-87
2022/03/20 12:32:52;;;;;;;16.30;12.82;;;14.00;45.30;;;;;;6290852;22;20229;-86
2022/03/20 12:35:21;;;;;;;14.85;11.95;;;14.00;45.70;;;;;;6290359;22;20178;-81
2022/03/20 12:37:49;;;;;;;15.45;11.95;;;14.00;46.30;;;;;;6289642;22;20165;-82
2022/03/20 12:40:18;;;;;;;16.52;12.23;;;13.90;46.20;;;;;;6288588;22;20201;-83
2022/03/20 12:42:58;;;;;;;18.23;13.55;;;13.80;45.60;;;;;;6286947;22;20257;-83
2022/03/20 12:45:28;;;;;;;14.18;12.65;;;13.70;45.70;;;;;;6287421;22;20223;-82
2022/03/20 12:47:58;;;;;;;15.30;12.68;;;13.80;46.20;;;;;;6287408;22;20185;-82
2022/03/20 12:50:27;;;;;;;17.95;13.70;;;13.80;46.30;;;;;;6286551;22;20205;-83
2022/03/20 12:53:02;;;;;;;17.33;11.95;;;13.80;45.80;;;;;;6288540;22;20213;-82
2022/03/20 12:55:30;;;;;;;18.70;13.60;;;13.90;45.80;;;;;;6289223;22;20192;-84
2022/03/20 12:57:56;;;;;;;14.55;12.50;;;14.00;46.00;;;;;;6288784;22;20517;-83
2022/03/20 13:00:27;;;;;;;15.13;11.05;;;14.20;45.80;;;;;;6293721;22;20233;-83
2022/03/20 13:03:00;;;;;;;15.30;12.27;;;14.10;45.50;;;;;;6291268;22;20197;-83
2022/03/20 13:05:28;;;;;;;18.15;11.82;;;14.20;45.60;;;;;;6288975;22;20162;-83
2022/03/20 13:07:56;;;;;;;16.45;12.82;;;14.20;46.40;;;;;;6289718;22;20193;-83
2022/03/20 13:10:23;;;;;;;14.57;11.32;;;14.40;46.60;;;;;;6289602;22;20175;-84
2022/03/20 13:12:52;;;;;;;15.45;10.45;;;14.30;45.30;;;;;;6289631;22;20202;-83
2022/03/20 13:15:39;;;;;;;13.30;11.90;;;14.40;45.50;;;;;;6290676;22;20265;-83
2022/03/20 13:18:08;;;;;;;14.48;11.85;;;14.40;45.30;;;;;;6290649;22;20189;-82
2022/03/20 13:20:36;;;;;;;18.23;12.20;;;14.50;44.80;;;;;;6290478;22;20233;-83
2022/03/20 13:23:07;;;;;;;17.00;12.02;;;14.30;44.80;;;;;;6293091;22;20187;-83
2022/03/20 13:25:39;;;;;;;15.55;10.50;;;14.30;44.20;;;;;;6292957;22;20197;-82
2022/03/20 13:28:07;;;;;;;13.57;9.65;;;14.30;44.10;;;;;;6293408;22;20223;-84
2022/03/20 13:30:36;;;;;;;16.27;12.07;;;14.20;44.20;;;;;;6294946;22;20174;-83
2022/03/20 13:33:05;;;;;;;15.70;10.93;;;14.20;44.00;;;;;;6293096;22;20236;-82